createdAt,value
2019-03-08T00:00:18.235Z,1.10
2019-03-08T00:03:25.145Z,1.20
2019-03-08T00:06:32.232Z,1.03
2019-03-08T00:09:39.253Z,0.93
2019-03-08T00:12:46.061Z,1.23
2019-03-08T00:15:52.979Z,0.90
2019-03-08T00:18:59.930Z,1.00
2019-03-08T00:22:08.642Z,1.30
2019-03-08T00:25:16.051Z,0.73
2019-03-08T00:28:23.122Z,1.00
2019-03-08T00:31:30.143Z,1.63
2019-03-08T00:34:37.112Z,0.97
2019-03-08T00:37:44.168Z,1.10
2019-03-08T00:40:51.157Z,0.90
2019-03-08T00:43:58.081Z,0.93
2019-03-08T00:47:05.538Z,0.90
2019-03-08T00:50:13.106Z,0.90
2019-03-08T00:53:20.153Z,1.10
2019-03-08T00:56:29.130Z,1.23
2019-03-08T00:59:36.089Z,1.27
2019-03-08T01:02:42.989Z,1.40
2019-03-08T01:05:50.101Z,1.20
2019-03-08T01:08:56.991Z,1.10
2019-03-08T01:12:03.968Z,1.07
2019-03-08T01:15:12.221Z,1.30
2019-03-08T01:18:19.214Z,0.93
2019-03-08T01:21:26.380Z,1.10
2019-03-08T01:24:33.846Z,1.20
2019-03-08T01:27:56.329Z,1.37
2019-03-08T01:31:03.611Z,1.10
2019-03-08T01:34:10.570Z,1.23
2019-03-08T01:37:17.487Z,1.10
2019-03-08T01:40:24.451Z,1.20
2019-03-08T01:43:31.403Z,1.30
2019-03-08T01:46:38.326Z,1.43
2019-03-08T01:49:45.273Z,1.00
2019-03-08T01:52:52.218Z,1.27
2019-03-08T01:55:59.327Z,1.30
2019-03-08T01:59:06.540Z,1.10
2019-03-08T02:02:13.570Z,1.13
2019-03-08T02:05:21.334Z,1.00
2019-03-08T02:08:28.254Z,1.20
2019-03-08T02:11:35.215Z,1.10
2019-03-08T02:14:42.137Z,1.30
2019-03-08T02:18:01.138Z,1.07
2019-03-08T02:21:08.120Z,1.50
2019-03-08T02:24:15.099Z,1.40
2019-03-08T02:27:22.042Z,1.33
2019-03-08T02:30:28.973Z,1.10
2019-03-08T02:33:35.954Z,1.23
2019-03-08T02:36:42.862Z,1.53
2019-03-08T02:39:49.674Z,1.80
2019-03-08T02:42:56.589Z,1.60
2019-03-08T02:46:03.855Z,1.20
2019-03-08T02:49:10.815Z,1.07
2019-03-08T02:52:17.735Z,1.40
2019-03-08T02:55:24.610Z,1.60
2019-03-08T02:58:31.742Z,1.57
2019-03-08T03:01:38.692Z,1.60
2019-03-08T03:04:45.598Z,0.97
2019-03-08T03:07:52.523Z,1.47
2019-03-08T03:10:59.603Z,1.60
2019-03-08T03:14:06.665Z,1.67
2019-03-08T03:17:13.597Z,1.37
2019-03-08T03:20:21.877Z,1.33
2019-03-08T03:23:28.799Z,1.50
2019-03-08T03:26:35.786Z,1.40
2019-03-08T03:29:43.091Z,1.60
2019-03-08T03:32:50.013Z,1.23
2019-03-08T03:35:56.895Z,1.10
2019-03-08T03:39:04.923Z,1.30
2019-03-08T03:42:11.959Z,1.30
2019-03-08T03:45:20.034Z,1.00
2019-03-08T03:48:26.909Z,1.30
2019-03-08T03:51:33.837Z,1.10
2019-03-08T03:54:40.869Z,1.07
2019-03-08T03:57:47.845Z,1.20
2019-03-08T04:00:55.130Z,1.30
2019-03-08T04:04:02.029Z,1.20
2019-03-08T04:07:09.048Z,1.20
2019-03-08T04:10:15.989Z,1.10
2019-03-08T04:13:23.009Z,1.50
2019-03-08T04:16:29.930Z,1.37
2019-03-08T04:19:36.858Z,0.90
2019-03-08T04:22:43.936Z,1.10
2019-03-08T04:25:50.847Z,1.60
2019-03-08T04:28:57.772Z,1.23
2019-03-08T04:32:04.733Z,0.80
2019-03-08T04:35:11.737Z,1.40
2019-03-08T04:38:18.783Z,0.97
2019-03-08T04:41:25.699Z,1.27
2019-03-08T04:44:32.601Z,1.67
2019-03-08T04:47:39.648Z,1.33
2019-03-08T04:50:46.654Z,0.97
2019-03-08T04:53:53.787Z,1.03
2019-03-08T04:57:00.704Z,1.10
2019-03-08T05:00:14.194Z,1.10
2019-03-08T05:03:21.464Z,0.97
2019-03-08T05:06:28.569Z,0.83
2019-03-08T05:09:35.805Z,1.30
2019-03-08T05:12:42.762Z,1.00
2019-03-08T05:15:49.772Z,1.27
2019-03-08T05:18:56.668Z,1.47
2019-03-08T05:22:03.610Z,0.77
2019-03-08T05:25:10.665Z,1.00
2019-03-08T05:28:17.719Z,0.80
2019-03-08T05:31:24.615Z,0.93
2019-03-08T05:34:31.564Z,0.93
2019-03-08T05:37:38.630Z,1.00
2019-03-08T05:40:45.930Z,1.00
2019-03-08T05:43:52.868Z,1.50
2019-03-08T05:46:59.803Z,1.10
2019-03-08T05:50:07.088Z,0.80
2019-03-08T05:53:14.274Z,0.60
2019-03-08T05:56:21.445Z,1.00
2019-03-08T05:59:28.354Z,1.40
2019-03-08T06:02:35.323Z,1.10
2019-03-08T06:05:42.426Z,0.90
2019-03-08T06:08:49.427Z,1.13
2019-03-08T06:11:56.285Z,1.10
2019-03-08T06:15:03.180Z,1.10
2019-03-08T06:18:10.515Z,1.37
2019-03-08T06:21:17.399Z,0.80
2019-03-08T06:24:24.461Z,1.00
2019-03-08T06:27:31.322Z,1.60
2019-03-08T06:30:38.595Z,1.30
2019-03-08T06:33:45.663Z,1.00
2019-03-08T06:36:52.561Z,1.20
2019-03-08T06:39:59.540Z,1.20
2019-03-08T06:43:06.533Z,1.23
2019-03-08T06:46:13.510Z,1.00
2019-03-08T06:49:20.537Z,0.90
2019-03-08T06:52:27.444Z,0.80
2019-03-08T06:55:34.496Z,0.93
2019-03-08T06:58:59.306Z,1.30
2019-03-08T07:02:06.546Z,1.33
2019-03-08T07:05:13.648Z,0.80
2019-03-08T07:08:20.754Z,1.20
2019-03-08T07:11:27.958Z,1.60
2019-03-08T07:15:26.414Z,1.70
2019-03-08T07:26:51.499Z,1.10
2019-03-08T07:30:23.867Z,1.00
2019-03-08T07:33:38.259Z,1.00
2019-03-08T07:37:10.269Z,1.30
2019-03-08T07:40:36.268Z,1.13
2019-03-08T07:44:00.811Z,1.07
2019-03-08T07:47:35.858Z,1.70
2019-03-08T07:50:56.184Z,1.10
2019-03-08T07:54:20.809Z,1.30
2019-03-08T07:57:45.759Z,1.20
2019-03-08T08:01:17.981Z,1.53
2019-03-08T08:04:42.166Z,1.13
2019-03-08T08:08:14.230Z,1.20
2019-03-08T08:11:46.841Z,1.00
2019-03-08T08:15:11.614Z,1.17
2019-03-08T08:18:40.802Z,0.97
2019-03-08T08:22:03.550Z,1.40
2019-03-08T08:25:47.763Z,1.30
2019-03-08T08:29:12.497Z,1.30
2019-03-08T08:32:37.386Z,1.70
2019-03-08T08:36:02.021Z,1.90
2019-03-08T08:39:40.979Z,2.93
2019-03-08T08:43:03.696Z,1.17
2019-03-08T08:46:48.233Z,1.30
2019-03-08T08:50:17.229Z,1.10
2019-03-08T08:53:42.342Z,1.30
2019-03-08T08:57:08.675Z,1.00
2019-03-08T09:00:32.095Z,1.23
2019-03-08T09:04:04.847Z,1.27
2019-03-08T09:07:34.051Z,0.77
2019-03-08T09:11:15.422Z,1.00
2019-03-08T09:14:44.577Z,0.87
2019-03-08T09:18:10.188Z,1.30
2019-03-08T09:21:30.638Z,0.90
2019-03-08T09:24:46.026Z,1.13
2019-03-08T09:28:12.541Z,1.20
2019-03-08T09:31:38.897Z,0.90
2019-03-08T09:35:04.922Z,1.30
2019-03-08T09:38:30.949Z,0.90
2019-03-08T09:41:51.557Z,0.97
2019-03-08T09:45:24.702Z,1.13
2019-03-08T09:48:48.281Z,0.73
2019-03-08T09:52:08.591Z,1.10
2019-03-08T09:55:29.535Z,1.20
2019-03-08T09:58:55.560Z,0.70
2019-03-08T10:02:27.242Z,1.20
2019-03-08T10:05:53.363Z,1.27
2019-03-08T10:09:16.404Z,1.20
2019-03-08T10:12:51.107Z,1.03
2019-03-08T10:16:05.311Z,0.97
2019-03-08T10:19:32.642Z,0.90
2019-03-08T10:23:19.886Z,1.10
2019-03-08T10:26:44.273Z,1.10
2019-03-08T10:30:19.811Z,0.90
2019-03-08T10:34:03.940Z,1.10
2019-03-08T10:37:29.811Z,0.90
2019-03-08T10:40:51.638Z,1.40
2019-03-08T10:44:23.501Z,0.90
2019-03-08T10:47:41.232Z,1.00
2019-03-08T10:50:59.134Z,1.00
2019-03-08T10:54:28.279Z,1.30
2019-03-08T10:58:00.187Z,1.23
2019-03-08T11:01:25.396Z,1.00
2019-03-08T11:04:38.620Z,1.30
2019-03-08T11:08:01.495Z,1.20
2019-03-08T11:11:21.665Z,1.23
2019-03-08T11:14:37.670Z,1.77
2019-03-08T11:18:06.894Z,1.30
2019-03-08T11:21:21.175Z,1.40
2019-03-08T11:24:46.890Z,1.50
2019-03-08T11:28:09.370Z,1.13
2019-03-08T11:31:50.525Z,1.17
2019-03-08T11:35:13.293Z,1.67
2019-03-08T11:38:46.477Z,1.40
2019-03-08T11:42:12.646Z,1.40
2019-03-08T11:45:50.940Z,1.40
2019-03-08T11:49:24.165Z,1.60
2019-03-08T11:52:36.815Z,1.50
2019-03-08T11:55:54.757Z,1.70
2019-03-08T11:59:38.960Z,1.40
2019-03-08T12:03:14.292Z,1.50
2019-03-08T12:06:49.967Z,1.63
2019-03-08T12:10:24.992Z,1.60
2019-03-08T12:13:53.954Z,1.53
2019-03-08T12:17:28.839Z,2.30
2019-03-08T12:20:45.278Z,1.47
2019-03-08T12:24:17.268Z,1.90
2019-03-08T12:27:31.973Z,1.70
2019-03-08T12:30:52.618Z,1.80
2019-03-08T12:34:18.692Z,1.83
2019-03-08T12:37:59.344Z,1.70
2019-03-08T12:41:40.283Z,1.83
2019-03-08T12:45:04.939Z,1.80
2019-03-08T12:48:30.876Z,2.13
2019-03-08T12:51:47.069Z,1.77
2019-03-08T12:55:22.152Z,1.43
2019-03-08T12:58:46.519Z,1.57
2019-03-08T13:02:11.108Z,1.73
2019-03-08T13:05:54.985Z,1.40
2019-03-08T13:09:10.506Z,1.50
2019-03-08T13:12:17.983Z,1.13
2019-03-08T13:15:25.300Z,1.83
2019-03-08T13:18:32.580Z,1.50
2019-03-08T13:21:40.234Z,1.40
2019-03-08T13:24:47.613Z,1.50
2019-03-08T13:27:54.514Z,1.33
2019-03-08T13:31:01.418Z,2.07
2019-03-08T13:34:08.771Z,1.87
2019-03-08T13:37:15.826Z,1.60
2019-03-08T13:40:22.773Z,1.70
2019-03-08T13:43:29.705Z,1.70
2019-03-08T13:46:37.293Z,2.00
2019-03-08T13:49:44.234Z,1.87
2019-03-08T13:52:51.679Z,1.80
2019-03-08T13:55:58.630Z,1.80
2019-03-08T13:59:05.762Z,1.37
2019-03-08T14:02:13.034Z,1.50
2019-03-08T14:05:20.302Z,1.23
2019-03-08T14:08:27.212Z,1.53
2019-03-08T14:11:34.300Z,1.77
2019-03-08T14:14:41.326Z,1.70
2019-03-08T14:17:48.513Z,1.43
2019-03-08T14:20:55.540Z,2.03
2019-03-08T14:24:02.477Z,1.73
2019-03-08T14:27:09.786Z,1.53
2019-03-08T14:30:17.803Z,1.33
2019-03-08T14:33:24.928Z,1.50
2019-03-08T14:36:31.887Z,1.80
2019-03-08T14:39:40.351Z,1.60
2019-03-08T14:42:53.232Z,1.23
2019-03-08T14:46:07.227Z,1.20
2019-03-08T14:49:14.231Z,1.93
2019-03-08T14:52:21.739Z,0.90
2019-03-08T14:55:29.511Z,1.40
2019-03-08T14:58:40.441Z,1.13
2019-03-08T15:01:47.570Z,1.13
2019-03-08T15:04:54.648Z,1.23
2019-03-08T15:08:01.604Z,1.73
2019-03-08T15:11:08.625Z,1.57
2019-03-08T15:14:15.749Z,1.27
2019-03-08T15:17:23.071Z,1.47
2019-03-08T15:20:30.181Z,1.53
2019-03-08T15:23:37.395Z,1.67
2019-03-08T15:26:44.469Z,1.60
2019-03-08T15:29:54.568Z,2.00
2019-03-08T15:33:00.458Z,1.43
2019-03-08T15:36:07.456Z,1.70
2019-03-08T15:39:14.456Z,1.60
2019-03-08T15:42:21.464Z,1.73
2019-03-08T15:45:28.375Z,1.40
2019-03-08T15:48:35.462Z,1.30
2019-03-08T15:51:42.776Z,1.63
2019-03-08T15:54:49.710Z,1.30
2019-03-08T15:57:56.634Z,1.60
2019-03-08T16:01:03.622Z,1.40
2019-03-08T16:04:12.100Z,1.53
2019-03-08T16:07:23.104Z,1.50
2019-03-08T16:10:28.891Z,1.40
2019-03-08T16:13:36.038Z,1.80
2019-03-08T16:16:43.044Z,1.53
2019-03-08T16:19:49.997Z,1.70
2019-03-08T16:22:56.957Z,1.90
2019-03-08T16:26:04.148Z,1.67
2019-03-08T16:29:11.550Z,1.90
2019-03-08T16:32:36.064Z,1.73
2019-03-08T16:35:54.772Z,1.77
2019-03-08T16:39:29.290Z,1.67
2019-03-08T16:42:44.184Z,1.90
2019-03-08T16:46:13.538Z,1.67
2019-03-08T16:49:27.047Z,1.73
2019-03-08T16:53:10.712Z,2.20
2019-03-08T16:56:34.238Z,1.60
2019-03-08T16:59:55.382Z,1.70
2019-03-08T17:03:27.037Z,1.47
2019-03-08T17:06:41.866Z,1.70
2019-03-08T17:10:02.255Z,1.50
2019-03-08T17:13:40.094Z,2.00
2019-03-08T17:17:09.029Z,1.50
2019-03-08T17:20:47.206Z,2.40
2019-03-08T17:24:13.307Z,1.80
2019-03-08T17:27:39.828Z,2.27
2019-03-08T17:31:00.727Z,2.00
2019-03-08T17:34:32.503Z,1.83
2019-03-08T17:38:00.210Z,1.70
2019-03-08T17:41:38.400Z,1.70
2019-03-08T17:45:04.328Z,1.53
2019-03-08T17:48:37.159Z,2.60
2019-03-08T17:52:03.097Z,2.70
2019-03-08T17:55:35.129Z,2.10
2019-03-08T17:58:55.670Z,2.30
2019-03-08T18:02:25.494Z,1.67
2019-03-08T18:05:48.080Z,2.00
2019-03-08T18:09:29.117Z,2.00
2019-03-08T18:12:53.684Z,1.80
2019-03-08T18:16:11.384Z,2.00
2019-03-08T18:19:29.858Z,2.07
2019-03-08T18:22:54.910Z,1.80
2019-03-08T18:26:20.737Z,1.93
2019-03-08T18:29:44.373Z,2.40
2019-03-08T18:33:25.533Z,2.37
2019-03-08T18:36:49.808Z,1.90
2019-03-08T18:40:08.244Z,2.10
2019-03-08T18:43:40.268Z,2.47
2019-03-08T18:47:06.146Z,2.30
2019-03-08T18:50:47.153Z,2.33
2019-03-08T18:54:09.949Z,1.80
2019-03-08T18:57:33.831Z,2.33
2019-03-08T19:00:45.891Z,2.13
2019-03-08T19:04:23.759Z,2.33
2019-03-08T19:07:48.162Z,2.43
2019-03-08T19:11:14.250Z,2.20
2019-03-08T19:14:43.210Z,2.33
2019-03-08T19:17:58.116Z,1.97
2019-03-08T19:21:25.461Z,2.60
2019-03-08T19:24:43.071Z,1.67
2019-03-08T19:28:09.164Z,2.00
2019-03-08T19:31:25.345Z,1.87
2019-03-08T19:34:49.964Z,1.87
2019-03-08T19:38:14.621Z,1.90
2019-03-08T19:41:49.766Z,2.10
2019-03-08T19:45:03.441Z,2.47
2019-03-08T19:48:47.544Z,2.60
2019-03-08T19:52:04.043Z,2.00
2019-03-08T19:55:15.235Z,2.33
2019-03-08T19:58:44.273Z,2.00
2019-03-08T20:02:03.444Z,1.70
2019-03-08T20:05:29.411Z,3.57
2019-03-08T20:08:52.096Z,1.97
2019-03-08T20:12:10.654Z,1.90
2019-03-08T20:15:35.209Z,2.40
2019-03-08T20:19:01.202Z,2.07
2019-03-08T20:22:24.845Z,1.60
2019-03-08T20:25:53.721Z,1.80
2019-03-08T20:29:08.088Z,1.70
2019-03-08T20:32:37.225Z,1.70
2019-03-08T20:36:12.280Z,1.70
2019-03-08T20:39:39.234Z,1.80
2019-03-08T20:42:53.924Z,1.60
2019-03-08T20:46:05.413Z,1.60
2019-03-08T20:49:12.394Z,1.80
2019-03-08T20:52:19.461Z,2.70
2019-03-08T20:55:26.621Z,2.37
2019-03-08T20:58:33.536Z,2.60
2019-03-08T21:01:40.707Z,1.80
2019-03-08T21:04:47.979Z,2.10
2019-03-08T21:07:54.968Z,1.83
2019-03-08T21:11:02.115Z,1.70
2019-03-08T21:14:09.175Z,2.03
2019-03-08T21:17:16.249Z,1.90
2019-03-08T21:20:23.195Z,1.97
2019-03-08T21:23:30.196Z,1.93
2019-03-08T21:26:37.176Z,2.00
2019-03-08T21:29:44.506Z,2.27
2019-03-08T21:32:51.480Z,1.63
2019-03-08T21:35:58.381Z,1.93
2019-03-08T21:39:06.963Z,1.70
2019-03-08T21:42:14.041Z,1.93
2019-03-08T21:45:21.169Z,2.03
2019-03-08T21:48:28.094Z,2.10
2019-03-08T21:51:34.986Z,1.83
2019-03-08T21:54:41.898Z,2.30
2019-03-08T21:57:49.067Z,2.20
2019-03-08T22:00:55.949Z,1.80
2019-03-08T22:04:31.028Z,2.00
2019-03-08T22:07:37.919Z,1.80
2019-03-08T22:10:47.456Z,1.70
2019-03-08T22:13:54.405Z,1.60
2019-03-08T22:17:01.321Z,1.60
2019-03-08T22:20:08.380Z,1.90
2019-03-08T22:23:15.424Z,1.80
2019-03-08T22:26:22.811Z,1.93
2019-03-08T22:29:29.852Z,1.70
2019-03-08T22:32:36.881Z,1.73
2019-03-08T22:35:44.670Z,2.30
2019-03-08T22:38:51.637Z,2.20
2019-03-08T22:41:58.674Z,2.30
2019-03-08T22:45:05.844Z,2.00
2019-03-08T22:48:12.977Z,2.23
2019-03-08T22:51:19.980Z,2.23
2019-03-08T22:54:27.406Z,2.10
2019-03-08T22:57:34.282Z,2.17
2019-03-08T23:01:11.728Z,2.00
2019-03-08T23:04:18.813Z,2.07
2019-03-08T23:07:25.800Z,2.60
2019-03-08T23:10:32.699Z,2.20
2019-03-08T23:13:39.952Z,2.03
2019-03-08T23:16:46.912Z,2.13
2019-03-08T23:19:53.841Z,2.30
2019-03-08T23:23:00.790Z,2.30
2019-03-08T23:26:08.059Z,1.80
2019-03-08T23:29:21.992Z,1.97
2019-03-08T23:32:31.698Z,1.70
2019-03-08T23:35:38.532Z,1.93
2019-03-08T23:38:45.438Z,1.90
2019-03-08T23:41:52.431Z,1.87
2019-03-08T23:44:59.415Z,1.60
2019-03-08T23:48:06.278Z,1.40
2019-03-08T23:51:13.211Z,1.60
2019-03-08T23:54:20.237Z,1.67
2019-03-08T23:57:27.397Z,1.83
